createdAt,value
2023-03-05T00:03:36.020Z,94914.00
2023-03-05T00:07:35.922Z,94917.00
2023-03-05T00:11:35.872Z,94919.00
2023-03-05T00:15:35.871Z,94915.00
2023-03-05T00:19:35.794Z,94910.00
2023-03-05T00:23:35.748Z,94914.00
2023-03-05T00:27:35.710Z,94912.00
2023-03-05T00:31:35.736Z,94908.00
2023-03-05T00:35:36.138Z,94910.00
2023-03-05T00:39:35.580Z,94908.00
2023-03-05T00:43:35.593Z,94904.00
2023-03-05T00:47:35.514Z,94906.00
2023-03-05T00:51:35.515Z,94900.00
2023-03-05T00:55:35.477Z,94898.00
2023-03-05T00:59:35.657Z,94894.00
2023-03-05T01:03:35.627Z,94882.00
2023-03-05T01:07:35.556Z,94874.00
2023-03-05T01:11:35.512Z,94869.00
2023-03-05T01:15:35.480Z,94865.00
2023-03-05T01:19:35.465Z,94861.00
2023-03-05T01:23:35.387Z,94857.00
2023-03-05T01:27:35.344Z,94859.00
2023-03-05T01:31:35.372Z,94857.00
2023-03-05T01:35:35.333Z,94855.00
2023-03-05T01:39:35.292Z,94855.00
2023-03-05T01:43:35.330Z,94853.00
2023-03-05T01:47:35.383Z,94851.00
2023-03-05T01:51:35.362Z,94845.00
2023-03-05T01:55:35.305Z,94845.00
2023-03-05T01:59:35.247Z,94845.00
2023-03-05T02:03:35.267Z,94845.00
2023-03-05T02:07:35.165Z,94845.00
2023-03-05T02:11:35.121Z,94835.00
2023-03-05T02:15:35.118Z,94835.00
2023-03-05T02:19:35.091Z,94833.00
2023-03-05T02:23:35.090Z,94829.00
2023-03-05T02:27:35.040Z,94825.00
2023-03-05T02:31:35.045Z,94821.00
2023-03-05T02:35:34.975Z,94819.00
2023-03-05T02:39:34.883Z,94819.00
2023-03-05T02:43:34.845Z,94817.00
2023-03-05T02:47:34.830Z,94815.00
2023-03-05T02:51:34.819Z,94810.00
2023-03-05T02:55:34.698Z,94814.00
2023-03-05T02:59:34.704Z,94806.00
2023-03-05T03:03:34.696Z,94802.00
2023-03-05T03:07:34.727Z,94802.00
2023-03-05T03:11:34.696Z,94796.00
2023-03-05T03:15:34.620Z,94794.00
2023-03-05T03:19:34.570Z,94796.00
2023-03-05T03:23:34.562Z,94794.00
2023-03-05T03:27:34.547Z,94792.00
2023-03-05T03:31:34.468Z,94792.00
2023-03-05T03:35:34.473Z,94792.00
2023-03-05T03:39:34.405Z,94790.00
2023-03-05T03:43:34.365Z,94792.00
2023-03-05T03:47:34.341Z,94788.00
2023-03-05T03:51:34.260Z,94784.00
2023-03-05T03:55:34.280Z,94782.00
2023-03-05T03:59:34.243Z,94780.00
2023-03-05T04:03:34.181Z,94778.00
2023-03-05T04:07:34.108Z,94778.00
2023-03-05T04:11:34.093Z,94776.00
2023-03-05T04:15:34.043Z,94778.00
2023-03-05T04:19:34.016Z,94776.00
2023-03-05T04:23:33.991Z,94772.00
2023-03-05T04:27:33.933Z,94770.00
2023-03-05T04:31:33.934Z,94763.00
2023-03-05T04:35:33.872Z,94761.00
2023-03-05T04:39:33.818Z,94757.00
2023-03-05T04:43:33.764Z,94753.00
2023-03-05T04:47:33.739Z,94751.00
2023-03-05T04:51:33.686Z,94745.00
2023-03-05T04:55:33.660Z,94747.00
2023-03-05T04:59:33.635Z,94737.00
2023-03-05T05:03:33.550Z,94735.00
2023-03-05T05:07:33.613Z,94731.00
2023-03-05T05:11:33.677Z,94727.00
2023-03-05T05:15:33.703Z,94729.00
2023-03-05T05:19:33.840Z,94727.00
2023-03-05T05:23:33.799Z,94727.00
2023-03-05T05:27:33.872Z,94720.00
2023-03-05T05:31:34.137Z,94718.00
2023-03-05T05:35:34.211Z,94720.00
2023-03-05T05:39:34.201Z,94718.00
2023-03-05T05:43:34.300Z,94718.00
2023-03-05T05:47:34.377Z,94714.00
2023-03-05T05:51:34.443Z,94714.00
2023-03-05T05:55:34.504Z,94720.00
2023-03-05T05:59:34.553Z,94721.00
2023-03-05T06:03:34.586Z,94721.00
2023-03-05T06:07:34.689Z,94725.00
2023-03-05T06:11:34.784Z,94725.00
2023-03-05T06:15:34.883Z,94729.00
2023-03-05T06:19:34.950Z,94731.00
2023-03-05T06:23:35.104Z,94725.00
2023-03-05T06:27:35.086Z,94725.00
2023-03-05T06:31:37.243Z,94725.00
2023-03-05T06:35:35.256Z,94729.00
2023-03-05T06:39:35.319Z,94731.00
2023-03-05T06:43:35.369Z,94727.00
2023-03-05T06:47:35.430Z,94727.00
2023-03-05T06:51:35.489Z,94721.00
2023-03-05T06:55:35.591Z,94723.00
2023-03-05T06:59:35.675Z,94725.00
2023-03-05T07:03:35.737Z,94725.00
2023-03-05T07:07:35.796Z,94725.00
2023-03-05T07:11:35.896Z,94723.00
2023-03-05T07:15:36.005Z,94721.00
2023-03-05T07:19:36.022Z,94718.00
2023-03-05T07:23:36.143Z,94718.00
2023-03-05T07:27:36.218Z,94714.00
2023-03-05T07:31:36.280Z,94708.00
2023-03-05T07:35:36.386Z,94700.00
2023-03-05T07:39:36.402Z,94698.00
2023-03-05T07:43:36.408Z,94696.00
2023-03-05T07:47:36.584Z,94690.00
2023-03-05T07:51:36.569Z,94690.00
2023-03-05T07:55:36.518Z,94684.00
2023-03-05T07:59:36.484Z,94680.00
2023-03-05T08:03:36.437Z,94672.00
2023-03-05T08:07:36.403Z,94667.00
2023-03-05T08:11:36.377Z,94661.00
2023-03-05T08:15:36.387Z,94659.00
2023-03-05T08:19:36.305Z,94655.00
2023-03-05T08:23:36.247Z,94655.00
2023-03-05T08:27:36.280Z,94653.00
2023-03-05T08:31:36.236Z,94647.00
2023-03-05T08:35:36.189Z,94641.00
2023-03-05T08:39:36.088Z,94639.00
2023-03-05T08:43:36.059Z,94627.00
2023-03-05T08:47:36.049Z,94623.00
2023-03-05T08:51:35.997Z,94621.00
2023-03-05T08:55:35.996Z,94620.00
2023-03-05T08:59:35.916Z,94612.00
2023-03-05T09:03:35.887Z,94606.00
2023-03-05T09:07:35.873Z,94606.00
2023-03-05T09:11:35.816Z,94596.00
2023-03-05T09:15:35.765Z,94592.00
2023-03-05T09:19:35.755Z,94580.00
2023-03-05T09:23:35.718Z,94573.00
2023-03-05T09:27:35.631Z,94563.00
2023-03-05T09:31:35.679Z,94555.00
2023-03-05T09:35:35.634Z,94547.00
2023-03-05T09:39:35.576Z,94533.00
2023-03-05T09:43:35.503Z,94527.00
2023-03-05T09:47:35.433Z,94519.00
2023-03-05T09:51:35.443Z,94516.00
2023-03-05T09:55:35.382Z,94514.00
2023-03-05T09:59:35.330Z,94502.00
2023-03-05T10:03:35.411Z,94500.00
2023-03-05T10:07:35.308Z,94494.00
2023-03-05T10:11:35.296Z,94488.00
2023-03-05T10:15:35.202Z,94480.00
2023-03-05T10:19:35.344Z,94472.00
2023-03-05T10:23:35.464Z,94465.00
2023-03-05T10:27:35.531Z,94461.00
2023-03-05T10:31:35.649Z,94451.00
2023-03-05T10:35:35.588Z,94439.00
2023-03-05T10:39:35.581Z,94433.00
2023-03-05T10:43:35.523Z,94422.00
2023-03-05T10:47:35.470Z,94412.00
2023-03-05T10:51:35.400Z,94404.00
2023-03-05T10:55:35.398Z,94398.00
2023-03-05T10:59:35.962Z,94388.00
2023-03-05T11:03:35.638Z,94378.00
2023-03-05T11:07:35.610Z,94367.00
2023-03-05T11:11:35.514Z,94363.00
2023-03-05T11:15:35.549Z,94349.00
2023-03-05T11:19:35.424Z,94347.00
2023-03-05T11:23:35.399Z,94335.00
2023-03-05T11:27:35.380Z,94326.00
2023-03-05T11:31:35.335Z,94318.00
2023-03-05T11:35:35.286Z,94308.00
2023-03-05T11:39:35.261Z,94300.00
2023-03-05T11:43:35.208Z,94292.00
2023-03-05T11:47:35.191Z,94280.00
2023-03-05T11:51:35.140Z,94273.00
2023-03-05T11:55:35.097Z,94265.00
2023-03-05T11:59:35.154Z,94259.00
2023-03-05T12:03:35.399Z,94255.00
2023-03-05T12:07:35.548Z,94247.00
2023-03-05T12:11:35.690Z,94233.00
2023-03-05T12:15:35.928Z,94226.00
2023-03-05T12:19:36.089Z,94218.00
2023-03-05T12:23:36.288Z,94210.00
2023-03-05T12:27:36.537Z,94198.00
2023-03-05T12:31:36.788Z,94188.00
2023-03-05T12:35:37.093Z,94180.00
2023-03-05T12:39:36.913Z,94176.00
2023-03-05T12:43:36.867Z,94169.00
2023-03-05T12:47:38.343Z,94163.00
2023-03-05T12:51:36.803Z,94155.00
2023-03-05T12:55:36.779Z,94151.00
2023-03-05T12:59:36.677Z,94151.00
2023-03-05T13:03:36.719Z,94143.00
2023-03-05T13:07:36.626Z,94135.00
2023-03-05T13:11:36.583Z,94133.00
2023-03-05T13:15:36.556Z,94131.00
2023-03-05T13:19:36.483Z,94124.00
2023-03-05T13:23:36.446Z,94110.00
2023-03-05T13:27:36.552Z,94106.00
2023-03-05T13:31:36.779Z,94100.00
2023-03-05T13:35:36.905Z,94096.00
2023-03-05T13:39:36.802Z,94090.00
2023-03-05T13:43:36.769Z,94088.00
2023-03-05T13:47:36.713Z,94088.00
2023-03-05T13:51:36.677Z,94081.00
2023-03-05T13:59:55.159Z,94071.00
2023-03-05T14:03:55.902Z,94067.00
2023-03-05T14:07:55.427Z,94061.00
2023-03-05T14:11:55.366Z,94057.00
2023-03-05T14:15:55.316Z,94057.00
2023-03-05T14:19:55.305Z,94053.00
2023-03-05T14:23:55.472Z,94047.00
2023-03-05T14:27:55.657Z,94047.00
2023-03-05T14:31:55.858Z,94043.00
2023-03-05T14:35:55.935Z,94037.00
2023-03-05T14:39:55.855Z,94037.00
2023-03-05T14:43:55.769Z,94030.00
2023-03-05T14:47:55.781Z,94030.00
2023-03-05T14:51:55.734Z,94026.00
2023-03-05T14:55:55.677Z,94026.00
2023-03-05T14:59:55.726Z,94020.00
2023-03-05T15:03:55.637Z,94010.00
2023-03-05T15:07:55.590Z,94002.00
2023-03-05T15:11:55.545Z,94004.00
2023-03-05T15:15:55.947Z,94004.00
2023-03-05T15:19:55.917Z,93998.00
2023-03-05T15:23:56.082Z,93994.00
2023-03-05T15:27:56.225Z,93994.00
2023-03-05T15:31:56.378Z,93996.00
2023-03-05T15:35:56.559Z,93994.00
2023-03-05T15:39:56.664Z,93996.00
2023-03-05T15:43:56.826Z,93992.00
2023-03-05T15:47:56.960Z,93994.00
2023-03-05T15:51:57.124Z,93998.00
2023-03-05T15:55:57.236Z,93994.00
2023-03-05T15:59:57.454Z,93998.00
2023-03-05T16:03:57.619Z,93996.00
2023-03-05T16:07:57.847Z,94004.00
2023-03-05T16:11:57.805Z,94008.00
2023-03-05T16:15:57.858Z,94006.00
2023-03-05T16:19:57.749Z,94012.00
2023-03-05T16:23:57.679Z,94008.00
2023-03-05T16:27:57.680Z,94016.00
2023-03-05T16:31:57.649Z,94020.00
2023-03-05T16:35:58.425Z,94026.00
2023-03-05T16:39:57.561Z,94030.00
2023-03-05T16:43:57.541Z,94033.00
2023-03-05T16:47:57.513Z,94035.00
2023-03-05T16:51:59.405Z,94041.00
2023-03-05T16:55:57.655Z,94045.00
2023-03-05T16:59:57.629Z,94043.00
2023-03-05T17:03:57.601Z,94047.00
2023-03-05T17:07:57.586Z,94053.00
2023-03-05T17:11:57.533Z,94061.00
2023-03-05T17:15:57.771Z,94061.00
2023-03-05T17:19:57.477Z,94067.00
2023-03-05T17:23:57.403Z,94069.00
2023-03-05T17:27:57.410Z,94075.00
2023-03-05T17:31:57.425Z,94075.00
2023-03-05T17:35:57.329Z,94079.00
2023-03-05T17:39:57.300Z,94084.00
2023-03-05T17:43:57.267Z,94092.00
2023-03-05T17:47:58.696Z,94094.00
2023-03-05T17:51:57.166Z,94098.00
2023-03-05T17:55:57.140Z,94108.00
2023-03-05T17:59:57.096Z,94100.00
2023-03-05T18:03:57.109Z,94104.00
2023-03-05T18:07:57.040Z,94108.00
2023-03-05T18:11:57.004Z,94110.00
2023-03-05T18:15:57.076Z,94112.00
2023-03-05T18:19:57.144Z,94112.00
2023-03-05T18:23:57.287Z,94114.00
2023-03-05T18:27:57.330Z,94122.00
2023-03-05T18:31:57.453Z,94114.00
2023-03-05T18:35:57.688Z,94114.00
2023-03-05T18:39:57.806Z,94124.00
2023-03-05T18:43:57.854Z,94126.00
2023-03-05T18:47:58.003Z,94126.00
2023-03-05T18:51:58.062Z,94126.00
2023-03-05T18:55:58.194Z,94126.00
2023-03-05T18:59:58.324Z,94124.00
2023-03-05T19:03:58.482Z,94128.00
2023-03-05T19:07:58.616Z,94129.00
2023-03-05T19:11:58.779Z,94129.00
2023-03-05T19:15:58.998Z,94133.00
2023-03-05T19:19:59.072Z,94131.00
2023-03-05T19:23:59.275Z,94133.00
2023-03-05T19:27:59.427Z,94131.00
2023-03-05T19:31:59.652Z,94131.00
2023-03-05T19:35:59.809Z,94135.00
2023-03-05T19:39:59.995Z,94133.00
2023-03-05T19:44:00.176Z,94131.00
2023-03-05T19:48:00.389Z,94129.00
2023-03-05T19:52:00.580Z,94133.00
2023-03-05T19:56:00.746Z,94129.00
2023-03-05T20:00:00.955Z,94133.00
2023-03-05T20:04:01.188Z,94131.00
2023-03-05T20:08:01.442Z,94135.00
2023-03-05T20:12:01.384Z,94137.00
2023-03-05T20:16:01.332Z,94137.00
2023-03-05T20:20:01.296Z,94135.00
2023-03-05T20:24:01.228Z,94135.00
2023-03-05T20:28:01.215Z,94135.00
2023-03-05T20:32:01.153Z,94131.00
2023-03-05T20:36:01.151Z,94126.00
2023-03-05T20:40:01.124Z,94126.00
2023-03-05T20:44:01.023Z,94126.00
2023-03-05T20:48:01.117Z,94128.00
2023-03-05T20:52:01.112Z,94124.00
2023-03-05T20:56:01.032Z,94122.00
2023-03-05T21:00:01.023Z,94122.00
2023-03-05T21:04:00.999Z,94110.00
2023-03-05T21:08:00.940Z,94110.00
2023-03-05T21:12:00.903Z,94108.00
2023-03-05T21:16:00.890Z,94102.00
2023-03-05T21:20:00.781Z,94098.00
2023-03-05T21:24:00.751Z,94098.00
2023-03-05T21:28:00.725Z,94090.00
2023-03-05T21:32:00.814Z,94090.00
2023-03-05T21:36:00.688Z,94083.00
2023-03-05T21:40:00.651Z,94083.00
2023-03-05T21:44:00.593Z,94079.00
2023-03-05T21:48:00.559Z,94071.00
2023-03-05T21:52:00.496Z,94063.00
2023-03-05T21:56:00.457Z,94063.00
2023-03-05T22:00:00.435Z,94057.00
2023-03-05T22:04:00.521Z,94057.00
2023-03-05T22:08:00.386Z,94057.00
2023-03-05T22:12:00.322Z,94057.00
2023-03-05T22:16:00.281Z,94061.00
2023-03-05T22:20:00.230Z,94063.00
2023-03-05T22:24:00.168Z,94061.00
2023-03-05T22:28:00.276Z,94065.00
2023-03-05T22:32:00.284Z,94059.00
2023-03-05T22:36:00.308Z,94061.00
2023-03-05T22:40:00.251Z,94057.00
2023-03-05T22:44:00.266Z,94051.00
2023-03-05T22:48:00.339Z,94053.00
2023-03-05T22:52:00.332Z,94049.00
2023-03-05T22:56:00.387Z,94047.00
2023-03-05T23:00:00.423Z,94041.00
2023-03-05T23:04:00.483Z,94037.00
2023-03-05T23:08:00.482Z,94041.00
2023-03-05T23:12:00.505Z,94043.00
2023-03-05T23:16:00.673Z,94045.00
2023-03-05T23:20:00.647Z,94045.00
2023-03-05T23:24:00.665Z,94043.00
2023-03-05T23:28:00.787Z,94041.00
2023-03-05T23:32:00.812Z,94039.00
2023-03-05T23:36:00.863Z,94041.00
2023-03-05T23:40:00.915Z,94043.00
2023-03-05T23:44:00.983Z,94041.00
2023-03-05T23:48:01.005Z,94043.00
2023-03-05T23:52:01.069Z,94037.00
2023-03-05T23:56:01.165Z,94041.00
